Time;durP1;ratioP1;P1;durP2;ratioP2;P2;SDS_P1;SDS_P2;PMS_P1;PMS_P2;Temp;Humidity;BMP_temperature;BMP_pressure;BME280_temperature;BME280_humidity;BME280_pressure;Samples;Min_cycle;Max_cycle;Signal;HPM_P1;HPM_P2
2023/03/19 00:01:27;;;;;;;1.33;0.38;;;12.20;90.40;;;;;;6257106;22;20029;-86
2023/03/19 00:03:55;;;;;;;1.88;0.25;;;12.10;90.50;;;;;;6256088;22;20077;-87
2023/03/19 00:06:25;;;;;;;0.88;0.20;;;11.90;90.80;;;;;;6257215;22;20019;-87
2023/03/19 00:08:54;;;;;;;0.52;0.20;;;11.80;91.10;;;;;;6255842;22;20022;-87
2023/03/19 00:11:22;;;;;;;0.60;0.28;;;11.60;91.30;;;;;;6255965;22;20026;-87
2023/03/19 00:13:49;;;;;;;0.75;0.35;;;11.50;91.50;;;;;;6231491;22;20034;-87
2023/03/19 00:16:16;;;;;;;0.65;0.20;;;11.50;91.70;;;;;;6231076;22;20374;-87
2023/03/19 00:18:44;;;;;;;0.95;0.38;;;11.40;91.80;;;;;;6256949;22;20023;-87
2023/03/19 00:21:11;;;;;;;0.15;0.10;;;11.40;91.90;;;;;;6281327;22;20038;-87
2023/03/19 00:23:41;;;;;;;0.43;0.10;;;11.30;92.00;;;;;;6256715;22;20069;-87
2023/03/19 00:26:11;;;;;;;0.68;0.20;;;11.30;92.10;;;;;;6233035;22;20029;-87
2023/03/19 00:28:39;;;;;;;0.45;0.10;;;11.20;92.10;;;;;;6256424;22;20406;-87
2023/03/19 00:31:12;;;;;;;1.58;0.10;;;11.20;92.20;;;;;;6256639;22;20022;-87
2023/03/19 00:33:40;;;;;;;0.95;0.10;;;11.20;92.30;;;;;;6256390;22;20054;-86
2023/03/19 00:36:08;;;;;;;0.30;0.10;;;11.20;92.40;;;;;;6256096;22;20023;-87
2023/03/19 00:38:39;;;;;;;0.38;0.10;;;11.20;92.50;;;;;;6256391;22;20098;-86
2023/03/19 00:41:06;;;;;;;0.10;0.08;;;11.20;92.60;;;;;;6255422;22;20069;-87
2023/03/19 00:43:34;;;;;;;0.80;0.10;;;11.20;92.60;;;;;;6254826;22;20016;-86
2023/03/19 00:46:01;;;;;;;0.75;0.03;;;11.20;92.70;;;;;;6281817;22;20019;-87
2023/03/19 00:48:31;;;;;;;0.60;0.20;;;11.10;92.70;;;;;;6256040;22;20023;-86
2023/03/19 00:51:07;;;;;;;0.22;0.10;;;11.10;92.70;;;;;;6255764;22;20023;-86
2023/03/19 00:53:40;;;;;;;0.38;0.10;;;11.20;92.80;;;;;;6255932;22;20026;-86
2023/03/19 00:56:10;;;;;;;0.35;0.10;;;11.20;92.80;;;;;;6255536;22;20098;-86
2023/03/19 00:58:39;;;;;;;0.08;0.00;;;11.20;92.80;;;;;;6250701;22;20026;-86
2023/03/19 01:01:08;;;;;;;1.08;0.30;;;11.20;92.80;;;;;;6249980;22;20094;-86
2023/03/19 01:03:35;;;;;;;0.20;0.10;;;11.20;92.90;;;;;;6251495;22;20020;-86
2023/03/19 01:06:04;;;;;;;0.17;0.10;;;11.20;92.90;;;;;;6254811;22;20019;-87
2023/03/19 01:08:34;;;;;;;0.40;0.10;;;11.20;93.00;;;;;;6256187;22;20015;-87
2023/03/19 01:11:07;;;;;;;0.30;0.10;;;11.20;93.00;;;;;;6255851;22;20045;-87
2023/03/19 01:13:35;;;;;;;1.25;0.10;;;11.20;93.00;;;;;;6255525;22;20030;-87
2023/03/19 01:16:03;;;;;;;0.25;0.10;;;11.20;93.10;;;;;;6255463;22;20018;-87
2023/03/19 01:18:30;;;;;;;1.05;0.20;;;11.20;93.10;;;;;;6255540;22;20089;-87
2023/03/19 01:20:58;;;;;;;0.10;0.10;;;11.20;93.10;;;;;;6255387;22;20082;-87
2023/03/19 01:23:29;;;;;;;0.45;0.15;;;11.20;93.20;;;;;;6255474;22;20019;-87
2023/03/19 01:26:00;;;;;;;0.93;0.20;;;11.10;93.20;;;;;;6256070;22;20027;-86
2023/03/19 01:28:28;;;;;;;0.20;0.10;;;11.20;93.20;;;;;;6255340;22;20388;-86
2023/03/19 01:31:06;;;;;;;0.20;0.10;;;11.10;93.30;;;;;;6256186;22;20353;-86
2023/03/19 01:34:03;;;;;;;0.85;0.20;;;11.20;93.30;;;;;;6262057;22;20023;-86
2023/03/19 01:36:39;;;;;;;0.88;0.20;;;11.10;93.40;;;;;;6256966;22;20011;-86
2023/03/19 01:39:13;;;;;;;0.30;0.10;;;11.00;93.40;;;;;;6256678;22;20061;-86
2023/03/19 01:41:41;;;;;;;0.10;0.10;;;11.00;93.50;;;;;;6231392;22;20091;-86
2023/03/19 01:44:39;;;;;;;0.20;0.08;;;10.90;93.50;;;;;;6254966;22;20019;-87
2023/03/19 01:47:37;;;;;;;0.68;0.10;;;10.90;93.60;;;;;;6254289;22;20037;-87
2023/03/19 01:50:39;;;;;;;0.10;0.10;;;10.80;93.70;;;;;;6285042;22;20049;-87
2023/03/19 01:53:30;;;;;;;0.20;0.00;;;10.70;93.80;;;;;;6258595;22;20015;-87
2023/03/19 01:56:21;;;;;;;0.10;0.00;;;10.70;93.90;;;;;;6259178;22;20019;-87
2023/03/19 01:59:27;;;;;;;0.50;0.10;;;10.70;93.90;;;;;;6258441;22;20016;-87
2023/03/19 02:02:38;;;;;;;0.20;0.10;;;10.70;93.90;;;;;;6213919;23;20021;-87
2023/03/19 02:05:24;;;;;;;0.40;0.10;;;10.60;93.90;;;;;;6188655;23;20024;-87
2023/03/19 02:07:58;;;;;;;0.32;0.13;;;10.60;93.90;;;;;;6234984;22;20076;-87
2023/03/19 02:10:27;;;;;;;0.23;0.10;;;10.60;93.90;;;;;;6255914;22;20045;-87
2023/03/19 02:12:55;;;;;;;0.40;0.10;;;10.60;94.00;;;;;;6255883;22;20388;-87
2023/03/19 02:15:25;;;;;;;0.32;0.10;;;10.60;94.00;;;;;;6255220;22;20091;-87
2023/03/19 02:17:53;;;;;;;0.75;0.30;;;10.60;94.00;;;;;;6255181;22;20015;-87
2023/03/19 02:20:25;;;;;;;0.20;0.10;;;10.70;94.00;;;;;;6255193;22;20111;-87
2023/03/19 02:23:17;;;;;;;0.47;0.10;;;10.80;93.90;;;;;;6255655;22;20031;-86
2023/03/19 02:26:00;;;;;;;0.30;0.10;;;10.80;93.90;;;;;;6280220;22;20019;-86
2023/03/19 02:28:29;;;;;;;0.20;0.10;;;10.90;93.90;;;;;;6280389;22;20015;-86
2023/03/19 02:30:56;;;;;;;0.10;0.00;;;10.90;93.90;;;;;;6255100;22;20023;-86
2023/03/19 02:33:24;;;;;;;0.32;0.10;;;10.90;93.90;;;;;;6255221;22;20023;-87
2023/03/19 02:35:52;;;;;;;0.20;0.10;;;10.90;93.80;;;;;;6230119;22;20025;-85
2023/03/19 02:38:22;;;;;;;0.40;0.20;;;10.90;93.80;;;;;;6254581;22;20405;-86
2023/03/19 02:41:07;;;;;;;0.63;0.20;;;11.00;93.80;;;;;;6254751;22;20019;-86
2023/03/19 02:43:38;;;;;;;0.98;0.30;;;11.00;93.80;;;;;;6255232;22;20042;-86
2023/03/19 02:46:10;;;;;;;0.65;0.30;;;11.00;93.80;;;;;;6254714;22;20498;-86
2023/03/19 02:48:40;;;;;;;0.30;0.15;;;11.00;93.90;;;;;;6255437;22;20066;-86
2023/03/19 02:51:07;;;;;;;0.68;0.20;;;11.00;93.90;;;;;;6229749;22;20081;-86
2023/03/19 02:53:35;;;;;;;0.30;0.20;;;11.00;93.90;;;;;;6254695;22;20015;-86
2023/03/19 02:56:03;;;;;;;0.40;0.30;;;11.00;93.90;;;;;;6255383;22;20019;-86
2023/03/19 02:58:30;;;;;;;0.30;0.10;;;11.00;93.90;;;;;;6254829;22;20045;-86
2023/03/19 03:00:58;;;;;;;0.32;0.13;;;11.00;93.90;;;;;;6229665;22;20445;-86
2023/03/19 03:03:25;;;;;;;0.43;0.17;;;11.00;93.90;;;;;;6229830;22;20023;-86
2023/03/19 03:05:52;;;;;;;0.30;0.10;;;11.10;94.00;;;;;;6228972;22;20023;-86
2023/03/19 03:08:19;;;;;;;0.45;0.10;;;11.10;94.00;;;;;;6229167;22;20054;-86
2023/03/19 03:10:47;;;;;;;0.28;0.10;;;11.10;94.00;;;;;;6254735;22;20035;-87
2023/03/19 03:13:14;;;;;;;0.45;0.10;;;11.10;94.00;;;;;;6255406;22;20110;-87
2023/03/19 03:15:41;;;;;;;0.55;0.25;;;11.10;94.00;;;;;;6229060;22;20038;-86
2023/03/19 03:18:11;;;;;;;0.77;0.20;;;11.10;94.00;;;;;;6254913;22;20015;-86
2023/03/19 03:20:42;;;;;;;0.77;0.20;;;11.10;94.00;;;;;;6254918;22;20021;-86
2023/03/19 03:23:11;;;;;;;0.55;0.17;;;11.10;94.00;;;;;;6255501;22;20020;-86
2023/03/19 03:25:42;;;;;;;0.70;0.20;;;11.10;94.00;;;;;;6254744;22;20025;-86
2023/03/19 03:28:12;;;;;;;;;;;11.10;94.10;;;;;;6255380;22;20038;-86
2023/03/19 03:30:41;;;;;;;1.30;0.38;;;11.00;94.10;;;;;;6229366;22;19919;-86
2023/03/19 03:33:08;;;;;;;0.50;0.20;;;11.00;94.10;;;;;;6229409;22;20023;-86
2023/03/19 03:35:38;;;;;;;0.70;0.30;;;11.00;94.10;;;;;;6254804;22;20018;-86
2023/03/19 03:38:08;;;;;;;1.05;0.30;;;11.00;94.20;;;;;;6254606;22;20015;-84
2023/03/19 03:40:37;;;;;;;1.40;0.40;;;11.00;94.20;;;;;;6229771;22;20033;-85
2023/03/19 03:43:04;;;;;;;0.85;0.40;;;11.00;94.20;;;;;;6280348;22;20041;-86
2023/03/19 03:45:33;;;;;;;1.08;0.50;;;11.00;94.30;;;;;;6279042;22;20389;-85
2023/03/19 03:48:04;;;;;;;1.30;0.55;;;11.00;94.40;;;;;;6279845;22;20030;-86
2023/03/19 03:50:32;;;;;;;1.48;0.60;;;11.00;94.40;;;;;;6254576;22;20064;-86
2023/03/19 03:53:05;;;;;;;1.63;0.40;;;11.00;94.40;;;;;;6257029;22;20015;-85
2023/03/19 03:55:35;;;;;;;1.00;0.30;;;11.00;94.40;;;;;;6256976;22;20090;-85
2023/03/19 03:58:02;;;;;;;1.50;0.45;;;11.00;94.50;;;;;;6281450;22;20023;-85
2023/03/19 04:00:30;;;;;;;2.28;0.50;;;11.00;94.50;;;;;;6256208;22;20037;-85
2023/03/19 04:03:01;;;;;;;1.20;0.50;;;11.00;94.60;;;;;;6256327;22;20023;-85
2023/03/19 04:05:29;;;;;;;1.33;0.52;;;11.00;94.60;;;;;;6231229;22;20334;-85
2023/03/19 04:07:58;;;;;;;0.85;0.40;;;10.90;94.60;;;;;;6256518;22;20106;-87
2023/03/19 04:10:26;;;;;;;0.65;0.30;;;10.90;94.70;;;;;;6255824;22;20106;-90
2023/03/19 04:12:53;;;;;;;0.90;0.50;;;10.90;94.70;;;;;;6256214;22;20019;-83
2023/03/19 04:15:21;;;;;;;1.25;0.40;;;10.80;94.80;;;;;;6255305;22;20457;-82
2023/03/19 04:17:51;;;;;;;0.77;0.38;;;10.90;94.80;;;;;;6256639;22;20022;-89
2023/03/19 04:20:24;;;;;;;1.05;0.40;;;10.90;94.90;;;;;;6256712;22;20019;-90
2023/03/19 04:22:58;;;;;;;1.10;0.30;;;10.90;95.00;;;;;;6257738;22;20095;-85
2023/03/19 04:25:41;;;;;;;1.00;0.30;;;10.90;94.80;;;;;;6256869;22;20015;-87
2023/03/19 04:28:08;;;;;;;1.15;0.70;;;10.90;94.90;;;;;;6255375;22;20042;-84
2023/03/19 04:30:35;;;;;;;1.00;0.40;;;10.80;94.90;;;;;;6230569;22;20023;-85
2023/03/19 04:33:03;;;;;;;0.85;0.30;;;10.80;95.00;;;;;;6256259;22;20026;-84
2023/03/19 04:35:31;;;;;;;1.50;0.40;;;10.80;95.00;;;;;;6280597;22;20054;-84
2023/03/19 04:37:58;;;;;;;0.82;0.30;;;10.80;95.00;;;;;;6255488;22;20012;-84
2023/03/19 04:40:26;;;;;;;1.00;0.43;;;10.70;95.10;;;;;;6255244;22;20023;-84
2023/03/19 04:43:04;;;;;;;0.57;0.40;;;10.70;95.10;;;;;;6256976;22;20018;-85
2023/03/19 04:45:33;;;;;;;1.20;0.30;;;10.70;95.20;;;;;;6255968;22;20384;-84
2023/03/19 04:48:01;;;;;;;0.70;0.30;;;10.70;95.20;;;;;;6230300;22;20128;-84
2023/03/19 04:50:30;;;;;;;0.85;0.30;;;10.70;95.20;;;;;;6231227;22;20113;-84
2023/03/19 04:53:01;;;;;;;1.27;0.40;;;10.70;95.20;;;;;;6255719;22;20019;-84
2023/03/19 04:55:28;;;;;;;0.75;0.30;;;10.70;95.20;;;;;;6280684;22;20027;-85
2023/03/19 04:58:08;;;;;;;0.85;0.40;;;10.70;95.20;;;;;;6234496;22;20098;-85
2023/03/19 05:00:37;;;;;;;0.43;0.20;;;10.70;95.20;;;;;;6254906;22;20520;-84
2023/03/19 05:03:06;;;;;;;1.30;0.40;;;10.80;95.20;;;;;;6230709;22;20039;-84
2023/03/19 05:05:34;;;;;;;1.20;0.38;;;10.70;95.10;;;;;;6255191;22;20043;-84
2023/03/19 05:08:07;;;;;;;1.02;0.50;;;10.80;95.20;;;;;;6256126;22;20494;-84
2023/03/19 05:10:36;;;;;;;0.90;0.47;;;10.70;95.10;;;;;;6255431;22;20401;-84
2023/03/19 05:13:04;;;;;;;1.10;0.47;;;10.70;95.20;;;;;;6255533;22;20015;-84
2023/03/19 05:15:32;;;;;;;1.10;0.50;;;10.70;95.20;;;;;;6280468;22;20357;-84
2023/03/19 05:18:07;;;;;;;1.00;0.40;;;10.70;95.20;;;;;;6256195;22;20073;-84
2023/03/19 05:20:41;;;;;;;1.48;0.60;;;10.70;95.20;;;;;;6280232;22;20496;-85
2023/03/19 05:23:20;;;;;;;1.63;0.43;;;10.70;95.30;;;;;;6256676;22;20345;-84
2023/03/19 05:26:02;;;;;;;4.30;0.50;;;10.70;95.30;;;;;;6258310;22;20108;-84
2023/03/19 05:28:52;;;;;;;1.17;0.50;;;10.80;95.30;;;;;;6229491;22;20019;-84
2023/03/19 05:31:32;;;;;;;1.00;0.50;;;10.70;95.50;;;;;;6256806;22;20019;-84
2023/03/19 05:33:59;;;;;;;1.75;0.60;;;10.80;95.30;;;;;;6229731;22;20073;-84
2023/03/19 05:36:31;;;;;;;1.45;0.73;;;10.80;95.30;;;;;;6255016;22;20023;-84
2023/03/19 05:39:15;;;;;;;2.00;0.60;;;10.80;95.30;;;;;;6257804;22;20019;-84
2023/03/19 05:41:44;;;;;;;1.67;0.65;;;10.80;95.30;;;;;;6254812;22;20094;-84
2023/03/19 05:44:16;;;;;;;1.17;0.60;;;10.80;95.30;;;;;;6256285;22;20026;-84
2023/03/19 05:46:53;;;;;;;2.00;0.85;;;10.80;95.30;;;;;;6284869;22;20050;-84
2023/03/19 05:49:22;;;;;;;1.50;0.70;;;10.80;95.30;;;;;;6255754;22;20019;-85
2023/03/19 05:51:50;;;;;;;2.20;1.00;;;10.80;95.30;;;;;;6255089;22;20026;-85
2023/03/19 05:54:18;;;;;;;2.17;1.08;;;10.80;95.30;;;;;;6254623;22;20357;-84
2023/03/19 05:57:25;;;;;;;3.25;1.17;;;10.80;95.30;;;;;;6273507;22;20023;-85
2023/03/19 06:00:05;;;;;;;2.75;1.00;;;10.80;95.20;;;;;;6257224;22;20023;-85
2023/03/19 06:02:33;;;;;;;4.55;1.92;;;10.80;95.20;;;;;;6283284;22;20053;-84
2023/03/19 06:05:24;;;;;;;5.05;2.75;;;10.90;95.30;;;;;;6263756;22;20015;-85
2023/03/19 06:07:59;;;;;;;4.22;1.98;;;10.90;95.30;;;;;;6255885;22;20019;-85
2023/03/19 06:10:40;;;;;;;3.75;1.83;;;10.90;95.30;;;;;;6256309;22;20098;-85
2023/03/19 06:13:10;;;;;;;3.33;1.92;;;10.90;95.20;;;;;;6231617;22;20106;-85
2023/03/19 06:15:41;;;;;;;4.47;2.55;;;10.90;95.20;;;;;;6255952;22;20023;-86
2023/03/19 06:18:18;;;;;;;5.32;2.85;;;10.90;95.20;;;;;;6234516;22;20112;-86
2023/03/19 06:20:47;;;;;;;6.38;3.20;;;11.00;95.20;;;;;;6254828;22;20027;-86
2023/03/19 06:23:16;;;;;;;10.07;5.47;;;11.00;95.20;;;;;;6254937;22;20106;-86
2023/03/19 06:25:46;;;;;;;8.85;5.88;;;11.00;95.30;;;;;;6254959;22;20101;-86
2023/03/19 06:28:15;;;;;;;12.38;6.55;;;11.00;95.30;;;;;;6255737;22;20322;-86
2023/03/19 06:30:44;;;;;;;11.70;6.70;;;11.00;95.30;;;;;;6218577;23;20028;-85
2023/03/19 06:33:31;;;;;;;11.10;6.70;;;11.00;95.20;;;;;;6243743;23;20078;-86
2023/03/19 06:35:58;;;;;;;12.90;7.45;;;11.00;95.20;;;;;;6218767;23;20072;-87
2023/03/19 06:38:29;;;;;;;9.85;5.32;;;11.10;95.20;;;;;;6217613;23;20070;-87
2023/03/19 06:40:59;;;;;;;11.95;6.80;;;11.10;95.20;;;;;;6218322;23;20020;-87
2023/03/19 06:43:28;;;;;;;8.35;5.60;;;11.10;95.20;;;;;;6218129;23;20012;-86
2023/03/19 06:45:55;;;;;;;10.77;6.43;;;11.10;95.10;;;;;;6193311;23;20074;-86
2023/03/19 06:48:22;;;;;;;10.45;5.93;;;11.20;95.10;;;;;;6243572;23;20090;-87
2023/03/19 06:50:49;;;;;;;7.88;5.00;;;11.20;95.20;;;;;;6218073;23;20035;-86
2023/03/19 06:53:17;;;;;;;7.68;4.55;;;11.20;95.20;;;;;;6217368;23;20027;-85
2023/03/19 06:55:47;;;;;;;6.82;4.25;;;11.20;95.20;;;;;;6192330;23;20562;-84
2023/03/19 06:58:14;;;;;;;8.75;4.60;;;11.20;95.20;;;;;;6192468;23;20024;-85
2023/03/19 07:00:41;;;;;;;7.70;3.85;;;11.20;95.10;;;;;;6245279;22;20332;-85
2023/03/19 07:03:11;;;;;;;7.43;4.68;;;11.30;95.20;;;;;;6229880;22;20038;-85
2023/03/19 07:05:38;;;;;;;8.05;4.65;;;11.30;95.40;;;;;;6253910;22;20035;-85
2023/03/19 07:08:10;;;;;;;7.72;4.80;;;11.30;95.10;;;;;;6254462;22;20357;-85
2023/03/19 07:10:38;;;;;;;7.80;4.60;;;11.40;95.10;;;;;;6280187;22;20026;-85
2023/03/19 07:13:07;;;;;;;7.15;4.65;;;11.40;95.10;;;;;;6254268;22;20023;-85
2023/03/19 07:15:35;;;;;;;8.27;5.35;;;11.40;95.10;;;;;;6254215;22;20110;-85
2023/03/19 07:18:03;;;;;;;9.48;6.00;;;11.40;95.10;;;;;;6253441;22;20437;-84
2023/03/19 07:20:33;;;;;;;9.93;5.50;;;11.40;95.10;;;;;;6254503;22;20020;-85
2023/03/19 07:23:03;;;;;;;9.75;5.97;;;11.40;95.10;;;;;;6254606;22;20019;-84
2023/03/19 07:25:30;;;;;;;9.68;6.05;;;11.40;95.00;;;;;;6205107;22;20073;-86
2023/03/19 07:28:02;;;;;;;12.23;8.10;;;11.40;95.10;;;;;;6257579;22;20046;-85
2023/03/19 07:30:30;;;;;;;12.73;7.50;;;11.40;95.10;;;;;;6231505;22;20023;-87
2023/03/19 07:33:07;;;;;;;11.00;6.43;;;11.40;95.10;;;;;;6256596;22;20026;-87
2023/03/19 07:35:35;;;;;;;10.60;6.47;;;11.40;95.10;;;;;;6256666;22;20019;-87
2023/03/19 07:38:05;;;;;;;9.30;6.18;;;11.40;95.10;;;;;;6256304;22;20019;-87
2023/03/19 07:40:32;;;;;;;11.40;5.80;;;11.40;95.10;;;;;;6256487;22;20476;-87
2023/03/19 07:43:00;;;;;;;9.27;6.00;;;11.50;95.10;;;;;;6256461;22;20076;-87
2023/03/19 07:45:33;;;;;;;7.35;4.95;;;11.50;95.00;;;;;;6281439;22;20025;-87
2023/03/19 07:48:02;;;;;;;7.22;4.38;;;11.50;95.00;;;;;;6256206;22;20048;-87
2023/03/19 07:50:30;;;;;;;8.02;5.07;;;11.60;95.00;;;;;;6256105;22;20034;-87
2023/03/19 07:53:02;;;;;;;10.05;5.95;;;11.60;94.90;;;;;;6256551;22;20019;-87
2023/03/19 07:55:30;;;;;;;8.98;5.70;;;11.70;94.90;;;;;;6231307;22;20023;-87
2023/03/19 07:58:03;;;;;;;7.38;4.78;;;11.70;94.80;;;;;;6255552;22;20027;-87
2023/03/19 08:00:30;;;;;;;11.35;5.93;;;11.70;94.80;;;;;;6232396;22;20015;-87
2023/03/19 08:02:58;;;;;;;7.68;5.50;;;11.80;94.80;;;;;;6231348;22;20011;-86
2023/03/19 08:05:26;;;;;;;8.32;4.68;;;11.90;94.70;;;;;;6256039;22;20049;-86
2023/03/19 08:07:56;;;;;;;7.40;4.82;;;11.90;94.70;;;;;;6256750;22;20026;-87
2023/03/19 08:10:23;;;;;;;8.52;4.80;;;11.90;94.60;;;;;;6256027;22;20019;-87
2023/03/19 08:12:51;;;;;;;6.78;4.45;;;12.00;94.50;;;;;;6256394;22;20114;-86
2023/03/19 08:15:18;;;;;;;6.68;4.13;;;12.00;94.40;;;;;;6255650;22;20026;-87
2023/03/19 08:17:45;;;;;;;6.85;3.90;;;12.10;94.40;;;;;;6256271;22;20030;-87
2023/03/19 08:20:15;;;;;;;6.35;3.72;;;12.10;94.30;;;;;;6256225;22;20441;-87
2023/03/19 08:22:47;;;;;;;5.00;2.97;;;12.10;94.30;;;;;;6281686;22;20023;-87
2023/03/19 08:25:14;;;;;;;6.82;4.63;;;12.20;94.20;;;;;;6282156;22;20011;-86
2023/03/19 08:27:44;;;;;;;5.55;3.60;;;12.30;94.10;;;;;;6256162;22;20524;-86
2023/03/19 08:30:16;;;;;;;7.13;4.85;;;12.30;94.10;;;;;;6282425;22;20349;-89
2023/03/19 08:32:45;;;;;;;8.13;4.93;;;12.30;93.90;;;;;;6232169;22;20026;-88
2023/03/19 08:35:13;;;;;;;8.43;4.90;;;12.30;93.80;;;;;;6256332;22;20019;-90
2023/03/19 08:37:46;;;;;;;7.28;4.45;;;12.40;93.80;;;;;;6256558;22;20011;-89
2023/03/19 08:40:16;;;;;;;8.15;5.35;;;12.40;93.70;;;;;;6256394;22;20015;-90
2023/03/19 08:42:55;;;;;;;6.40;4.82;;;12.50;93.70;;;;;;6256544;22;20349;-89
2023/03/19 08:45:33;;;;;;;6.70;4.47;;;12.50;93.70;;;;;;6258733;22;20023;-90
2023/03/19 08:48:01;;;;;;;11.60;5.57;;;12.50;93.70;;;;;;6257010;22;20023;-90
2023/03/19 08:50:28;;;;;;;9.55;5.30;;;12.40;93.70;;;;;;6256837;22;20082;-89
2023/03/19 08:53:06;;;;;;;8.15;4.38;;;12.40;93.70;;;;;;6257896;22;20019;-89
2023/03/19 08:55:34;;;;;;;8.30;4.65;;;12.40;93.70;;;;;;6256343;22;20023;-90
2023/03/19 08:58:01;;;;;;;8.82;4.78;;;12.40;93.80;;;;;;6255663;22;20470;-88
2023/03/19 09:00:28;;;;;;;8.57;5.35;;;12.40;93.80;;;;;;6230266;22;20018;-88
2023/03/19 09:02:56;;;;;;;9.48;5.82;;;12.40;94.00;;;;;;6255476;22;20020;-86
2023/03/19 09:05:23;;;;;;;10.05;6.38;;;12.40;93.70;;;;;;6255564;22;20323;-86
2023/03/19 09:07:51;;;;;;;7.65;5.82;;;12.40;93.70;;;;;;6256004;22;20023;-85
2023/03/19 09:10:22;;;;;;;8.30;5.40;;;12.50;93.60;;;;;;6255313;22;20023;-85
2023/03/19 09:12:50;;;;;;;8.88;5.78;;;12.50;93.50;;;;;;6281026;22;20495;-87
2023/03/19 09:15:21;;;;;;;7.70;5.35;;;12.60;93.50;;;;;;6256208;22;20015;-87
2023/03/19 09:17:51;;;;;;;7.75;5.43;;;12.60;93.40;;;;;;6255513;22;20130;-87
2023/03/19 09:20:22;;;;;;;11.50;8.02;;;12.60;93.30;;;;;;6230662;22;20219;-87
2023/03/19 09:22:52;;;;;;;13.38;8.50;;;12.60;93.20;;;;;;6254676;22;20045;-89
2023/03/19 09:25:22;;;;;;;15.75;9.32;;;12.60;93.20;;;;;;6255414;22;20024;-89
2023/03/19 09:27:54;;;;;;;12.48;8.93;;;12.50;93.20;;;;;;6255598;22;20391;-89
2023/03/19 09:30:33;;;;;;;10.82;7.72;;;12.50;93.20;;;;;;6256909;22;20026;-89
2023/03/19 09:33:04;;;;;;;11.82;7.97;;;12.40;93.30;;;;;;6255235;22;20023;-88
2023/03/19 09:35:38;;;;;;;8.55;7.30;;;12.30;93.40;;;;;;6255898;22;20453;-88
2023/03/19 09:38:06;;;;;;;11.68;7.85;;;12.20;93.50;;;;;;6255955;22;20034;-86
2023/03/19 09:40:53;;;;;;;11.98;8.15;;;12.20;93.50;;;;;;6230254;22;20106;-86
2023/03/19 09:43:40;;;;;;;12.40;7.65;;;12.20;93.50;;;;;;6255783;22;20011;-88
2023/03/19 09:46:22;;;;;;;10.75;7.70;;;12.30;93.50;;;;;;6256540;22;20015;-86
2023/03/19 09:49:17;;;;;;;14.65;9.52;;;12.30;93.40;;;;;;6257826;22;20290;-88
2023/03/19 09:51:59;;;;;;;11.32;7.38;;;12.30;93.40;;;;;;6255055;22;20012;-84
2023/03/19 09:54:32;;;;;;;10.90;7.20;;;12.20;93.40;;;;;;6307571;22;20017;-87
2023/03/19 09:57:19;;;;;;;12.27;8.55;;;12.20;93.40;;;;;;6256827;22;20071;-91
2023/03/19 09:59:53;;;;;;;15.38;8.85;;;12.20;93.40;;;;;;6255445;22;20019;-88
2023/03/19 10:02:40;;;;;;;15.43;9.27;;;12.20;93.30;;;;;;6254646;22;20019;-89
2023/03/19 10:05:54;;;;;;;12.27;8.10;;;12.30;93.30;;;;;;6255344;22;20109;-88
2023/03/19 10:08:59;;;;;;;11.13;7.85;;;12.30;93.20;;;;;;6240054;22;20031;-89
2023/03/19 10:11:43;;;;;;;9.57;6.70;;;12.30;93.10;;;;;;6255420;22;20019;-90
2023/03/19 10:14:42;;;;;;;9.50;7.22;;;12.40;93.20;;;;;;6258057;22;20098;-91
2023/03/19 10:17:18;;;;;;;9.98;7.82;;;12.50;93.00;;;;;;6255759;22;20049;-89
2023/03/19 10:20:36;;;;;;;15.23;8.07;;;12.70;92.90;;;;;;6256434;22;20757;-88
2023/03/19 10:23:42;;;;;;;14.40;9.55;;;12.80;92.50;;;;;;6280095;22;20451;-88
2023/03/19 10:26:16;;;;;;;11.45;8.55;;;13.10;92.30;;;;;;6254796;22;20015;-87
2023/03/19 10:28:53;;;;;;;12.75;9.82;;;13.30;92.10;;;;;;6254177;22;20019;-87
2023/03/19 10:31:39;;;;;;;14.98;9.68;;;13.40;91.80;;;;;;6254499;22;20453;-88
2023/03/19 10:34:18;;;;;;;12.15;9.23;;;13.50;91.80;;;;;;6255526;22;20072;-87
2023/03/19 10:36:50;;;;;;;17.20;11.00;;;13.60;91.60;;;;;;6254604;22;20076;-88
2023/03/19 10:39:18;;;;;;;14.43;11.57;;;13.60;91.30;;;;;;6230604;22;20049;-87
2023/03/19 10:42:10;;;;;;;13.88;11.90;;;13.60;91.20;;;;;;6280251;22;20039;-86
2023/03/19 10:45:07;;;;;;;12.85;10.15;;;13.70;91.20;;;;;;6214165;22;20467;-87
2023/03/19 10:47:38;;;;;;;14.52;11.70;;;13.60;91.10;;;;;;6280387;22;20039;-85
2023/03/19 10:50:16;;;;;;;14.27;11.30;;;13.70;91.00;;;;;;6255155;22;20043;-87
2023/03/19 10:53:01;;;;;;;15.40;12.00;;;13.60;91.00;;;;;;6255808;22;20061;-87
2023/03/19 10:55:37;;;;;;;19.77;12.57;;;13.60;90.90;;;;;;6254459;22;20023;-85
2023/03/19 10:58:25;;;;;;;19.17;14.52;;;13.60;90.70;;;;;;6254073;22;20105;-89
2023/03/19 11:01:02;;;;;;;20.95;12.35;;;13.60;90.60;;;;;;6257415;22;20022;-86
2023/03/19 11:03:37;;;;;;;15.05;11.95;;;13.50;90.70;;;;;;6256133;22;20015;-88
2023/03/19 11:06:19;;;;;;;14.73;11.93;;;13.50;90.70;;;;;;6258213;22;20023;-88
2023/03/19 11:09:17;;;;;;;15.02;10.50;;;13.50;90.80;;;;;;6260386;22;20019;-89
2023/03/19 11:12:13;;;;;;;12.93;9.70;;;13.60;90.70;;;;;;6259394;22;20054;-89
2023/03/19 11:14:54;;;;;;;15.32;10.48;;;13.60;90.80;;;;;;6257441;22;20027;-88
2023/03/19 11:17:45;;;;;;;16.10;10.18;;;13.70;90.60;;;;;;6257028;22;20027;-89
2023/03/19 11:20:35;;;;;;;10.98;8.85;;;13.80;90.60;;;;;;6257766;22;20061;-88
2023/03/19 11:23:21;;;;;;;15.23;10.45;;;13.80;90.60;;;;;;6259437;22;20057;-88
2023/03/19 11:26:00;;;;;;;15.82;12.52;;;13.90;90.60;;;;;;6282385;22;20111;-88
2023/03/19 11:28:35;;;;;;;17.25;12.13;;;13.80;90.60;;;;;;6257212;22;20023;-88
2023/03/19 11:31:33;;;;;;;16.25;12.60;;;13.80;90.60;;;;;;6263123;22;20019;-91
2023/03/19 11:34:18;;;;;;;16.00;12.18;;;13.80;90.60;;;;;;6258118;22;20080;-89
2023/03/19 11:37:04;;;;;;;18.17;13.75;;;13.80;90.60;;;;;;6257487;22;20098;-89
2023/03/19 11:40:01;;;;;;;15.82;11.23;;;13.90;90.40;;;;;;6257282;22;20023;-89
2023/03/19 11:42:44;;;;;;;17.75;13.48;;;13.90;90.40;;;;;;6257019;22;20019;-88
2023/03/19 11:45:48;;;;;;;17.83;12.52;;;14.00;90.20;;;;;;6283310;22;20069;-88
2023/03/19 11:48:32;;;;;;;14.90;11.07;;;14.20;90.00;;;;;;6258259;22;20050;-89
2023/03/19 11:51:19;;;;;;;15.38;10.07;;;14.40;89.80;;;;;;6256921;22;20023;-88
2023/03/19 11:54:30;;;;;;;16.40;11.73;;;14.50;89.20;;;;;;6257865;22;20029;-88
2023/03/19 11:57:08;;;;;;;16.38;10.82;;;14.60;88.50;;;;;;6257050;22;20315;-88
2023/03/19 12:00:01;;;;;;;15.32;10.77;;;14.70;88.40;;;;;;6258474;22;20015;-89
2023/03/19 12:03:09;;;;;;;19.00;12.88;;;14.80;88.20;;;;;;6284902;22;20029;-88
2023/03/19 12:05:39;;;;;;;22.45;13.68;;;14.80;87.90;;;;;;6213216;22;20015;-89
2023/03/19 12:08:38;;;;;;;22.15;14.20;;;14.80;88.10;;;;;;6256856;22;20098;-87
2023/03/19 12:11:37;;;;;;;21.83;14.68;;;14.80;88.00;;;;;;6256475;22;20030;-86
2023/03/19 12:14:33;;;;;;;20.55;13.38;;;14.70;88.00;;;;;;6256790;22;20030;-86
2023/03/19 12:17:42;;;;;;;26.30;15.95;;;14.60;88.40;;;;;;6281158;22;20046;-86
2023/03/19 12:20:51;;;;;;;25.88;15.70;;;14.60;88.00;;;;;;6256684;22;20113;-86
2023/03/19 12:23:48;;;;;;;22.75;13.80;;;14.50;88.10;;;;;;6259593;22;20016;-86
2023/03/19 12:27:16;;;;;;;24.63;14.85;;;14.40;88.20;;;;;;6282897;22;20011;-87
2023/03/19 12:29:55;;;;;;;19.85;11.68;;;14.40;88.00;;;;;;6217419;22;20472;-86
2023/03/19 12:32:36;;;;;;;20.05;12.20;;;14.40;88.20;;;;;;6256766;22;20023;-87
2023/03/19 12:35:17;;;;;;;20.95;11.85;;;14.50;88.10;;;;;;6256391;22;20020;-85
2023/03/19 12:38:25;;;;;;;21.63;11.83;;;14.70;87.80;;;;;;6193607;23;20147;-88
2023/03/19 12:41:09;;;;;;;21.00;12.18;;;14.80;87.20;;;;;;6154649;23;20079;-86
2023/03/19 12:44:03;;;;;;;19.70;11.88;;;14.70;87.30;;;;;;6130158;23;20018;-87
2023/03/19 12:47:11;;;;;;;20.63;11.85;;;14.70;87.20;;;;;;6111621;23;20014;-85
2023/03/19 12:50:20;;;;;;;19.58;11.25;;;14.50;87.30;;;;;;6129289;23;20017;-87
2023/03/19 12:53:33;;;;;;;17.35;11.68;;;14.40;87.70;;;;;;6129370;23;20029;-86
2023/03/19 12:56:37;;;;;;;20.85;11.55;;;14.30;87.70;;;;;;6129456;23;20018;-83
2023/03/19 12:59:26;;;;;;;20.52;11.30;;;14.20;87.50;;;;;;6095216;23;20052;-91
2023/03/19 13:02:39;;;;;;;18.30;10.65;;;14.10;87.90;;;;;;6120787;23;20021;-91
2023/03/19 13:26:03;;;;;;;11.57;6.43;;;15.00;85.80;;;;;;6214881;22;20004;-88
2023/03/19 13:28:52;;;;;;;14.10;6.80;;;15.30;85.20;;;;;;6228481;22;20019;-86
2023/03/19 13:32:10;;;;;;;10.02;6.22;;;15.40;84.60;;;;;;6225987;22;20023;-92
2023/03/19 14:04:16;;;;;;;13.15;6.97;;;15.10;82.80;;;;;;6127681;23;20353;-85
2023/03/19 14:07:09;;;;;;;11.80;6.70;;;15.00;83.00;;;;;;6129707;23;20068;-85
2023/03/19 14:09:47;;;;;;;10.40;6.13;;;14.90;83.20;;;;;;6129726;22;20072;-81
2023/03/19 14:12:14;;;;;;;13.32;7.18;;;14.90;83.20;;;;;;6244505;23;20024;-83
2023/03/19 14:16:52;;;;;;;14.20;6.75;;;14.80;82.50;;;;;;5103439;27;20399;-84
2023/03/19 14:19:24;;;;;;;9.27;6.10;;;14.80;83.00;;;;;;4971935;28;20050;-81
2023/03/19 14:22:07;;;;;;;12.25;6.40;;;14.70;83.50;;;;;;4974137;28;20062;-82